Time;durP1;ratioP1;P1;durP2;ratioP2;P2;SDS_P1;SDS_P2;PMS_P1;PMS_P2;Temp;Humidity;BMP_temperature;BMP_pressure;BME280_temperature;BME280_humidity;BME280_pressure;Samples;Min_cycle;Max_cycle;Signal;HPM_P1;HPM_P2
2023/06/29 00:01:01;;;;;;;2.78;1.50;;;22.30;52.20;;;;;;5000778;28;20026;-76
2023/06/29 00:03:27;;;;;;;2.53;1.30;;;22.30;52.20;;;;;;4999271;28;20077;-76
2023/06/29 00:05:55;;;;;;;1.75;1.48;;;22.30;52.30;;;;;;5000496;28;20459;-76
2023/06/29 00:08:25;;;;;;;2.33;1.40;;;22.40;52.50;;;;;;5000307;28;20034;-76
2023/06/29 00:10:55;;;;;;;2.38;1.60;;;22.40;52.40;;;;;;5000795;28;20038;-75
2023/06/29 00:13:24;;;;;;;1.83;1.60;;;22.40;53.00;;;;;;5000653;28;20031;-74
2023/06/29 00:15:49;;;;;;;1.73;1.45;;;22.40;52.30;;;;;;5015639;28;20022;-75
2023/06/29 00:18:15;;;;;;;1.50;1.40;;;22.40;52.30;;;;;;5000640;28;20026;-74
2023/06/29 00:20:44;;;;;;;1.60;1.40;;;22.40;52.40;;;;;;4999013;28;20026;-75
2023/06/29 00:23:10;;;;;;;3.45;1.50;;;22.30;52.40;;;;;;5000389;28;20116;-74
2023/06/29 00:25:38;;;;;;;1.40;1.30;;;22.30;52.40;;;;;;5000463;28;20026;-76
2023/06/29 00:28:04;;;;;;;1.83;1.40;;;22.30;52.40;;;;;;5015914;28;20037;-76
2023/06/29 00:30:30;;;;;;;1.50;1.40;;;22.30;52.50;;;;;;5000607;28;20388;-75
2023/06/29 00:32:56;;;;;;;2.33;1.27;;;22.30;52.40;;;;;;5014935;28;20480;-76
2023/06/29 00:35:22;;;;;;;1.50;1.40;;;22.20;52.40;;;;;;5000118;28;20073;-76
2023/06/29 00:37:48;;;;;;;1.42;1.30;;;22.20;52.70;;;;;;5000397;28;20030;-76
2023/06/29 00:40:13;;;;;;;1.70;1.60;;;22.20;52.70;;;;;;5000440;28;20034;-75
2023/06/29 00:42:39;;;;;;;1.60;1.50;;;22.10;52.60;;;;;;5000319;28;20045;-75
2023/06/29 00:45:05;;;;;;;2.05;1.55;;;22.00;52.70;;;;;;5000214;28;20054;-75
2023/06/29 00:47:32;;;;;;;1.90;1.70;;;22.00;52.80;;;;;;5000347;28;20035;-76
2023/06/29 00:49:59;;;;;;;2.00;1.70;;;22.00;52.90;;;;;;5000044;28;20038;-76
2023/06/29 00:52:25;;;;;;;1.70;1.60;;;21.90;52.80;;;;;;5015060;28;20029;-76
2023/06/29 00:54:53;;;;;;;1.95;1.70;;;21.90;53.00;;;;;;5018193;28;20030;-76
2023/06/29 00:57:19;;;;;;;2.95;1.60;;;21.80;53.00;;;;;;5018580;28;20030;-76
2023/06/29 00:59:45;;;;;;;2.63;1.70;;;21.80;53.20;;;;;;5018452;28;20041;-76
2023/06/29 01:02:13;;;;;;;1.83;1.60;;;21.80;53.20;;;;;;5017713;28;20026;-75
2023/06/29 01:04:40;;;;;;;1.73;1.55;;;21.70;53.20;;;;;;5016602;28;20747;-76
2023/06/29 01:07:22;;;;;;;2.50;1.55;;;21.70;53.20;;;;;;5017285;28;20026;-75
2023/06/29 01:09:48;;;;;;;2.38;1.50;;;21.60;53.30;;;;;;5016842;28;20431;-76
2023/06/29 01:12:15;;;;;;;1.60;1.50;;;21.50;53.30;;;;;;5016538;28;20037;-75
2023/06/29 01:14:44;;;;;;;3.10;1.50;;;21.50;53.40;;;;;;5016974;28;20037;-76
2023/06/29 01:17:15;;;;;;;2.25;1.73;;;21.50;53.50;;;;;;5015313;28;20030;-76
2023/06/29 01:19:45;;;;;;;2.88;1.60;;;21.50;53.50;;;;;;5015202;28;20034;-75
2023/06/29 01:22:19;;;;;;;1.75;1.63;;;21.40;53.60;;;;;;5016774;28;20528;-75
2023/06/29 01:24:45;;;;;;;1.92;1.67;;;21.40;53.70;;;;;;5016339;28;20160;-75
2023/06/29 01:27:12;;;;;;;1.40;1.30;;;21.40;53.70;;;;;;5016369;28;20026;-74
2023/06/29 01:29:38;;;;;;;1.35;1.25;;;21.40;53.80;;;;;;5016166;28;20038;-74
2023/06/29 01:32:07;;;;;;;2.10;1.40;;;21.40;53.80;;;;;;5016311;28;20099;-74
2023/06/29 01:34:34;;;;;;;1.58;1.45;;;21.40;53.70;;;;;;5016093;28;20389;-75
2023/06/29 01:37:14;;;;;;;3.40;1.70;;;21.40;53.70;;;;;;5016215;28;20018;-75
2023/06/29 01:40:01;;;;;;;1.88;1.25;;;21.40;53.70;;;;;;5015976;28;20392;-75
2023/06/29 01:42:31;;;;;;;2.22;1.50;;;21.40;53.90;;;;;;5014660;28;20026;-75
2023/06/29 01:45:03;;;;;;;2.47;1.60;;;21.40;53.80;;;;;;5016098;28;20096;-75
2023/06/29 01:47:29;;;;;;;1.77;1.50;;;21.40;53.70;;;;;;5014617;28;20052;-75
2023/06/29 01:49:55;;;;;;;1.85;1.60;;;21.40;53.80;;;;;;5015712;28;20080;-74
2023/06/29 01:52:21;;;;;;;1.35;1.27;;;21.30;53.80;;;;;;5015838;28;20038;-76
2023/06/29 01:54:47;;;;;;;1.92;1.48;;;21.30;53.80;;;;;;5015835;28;20030;-75
2023/06/29 01:57:12;;;;;;;1.90;1.40;;;21.20;53.80;;;;;;5015751;28;20407;-75
2023/06/29 01:59:38;;;;;;;2.25;1.60;;;21.20;53.90;;;;;;5014409;28;20384;-75
2023/06/29 02:02:05;;;;;;;1.40;1.30;;;21.20;54.00;;;;;;5014712;28;20026;-74
2023/06/29 02:04:31;;;;;;;3.78;1.27;;;21.30;54.10;;;;;;5014221;28;20038;-74
2023/06/29 02:06:57;;;;;;;1.48;1.25;;;21.30;54.10;;;;;;5015438;28;20026;-75
2023/06/29 02:09:23;;;;;;;1.73;1.58;;;21.40;54.10;;;;;;5015433;28;20380;-75
2023/06/29 02:11:49;;;;;;;1.83;1.45;;;21.40;54.00;;;;;;5014204;28;20026;-75
2023/06/29 02:14:17;;;;;;;3.58;1.50;;;21.50;54.00;;;;;;5014302;28;20026;-75
2023/06/29 02:16:43;;;;;;;2.13;1.60;;;21.50;53.90;;;;;;5015474;28;20018;-75
2023/06/29 02:19:09;;;;;;;1.85;1.23;;;21.60;53.90;;;;;;5014072;28;20037;-76
2023/06/29 02:21:34;;;;;;;1.38;1.27;;;21.60;53.90;;;;;;5015006;28;20026;-76
2023/06/29 02:24:00;;;;;;;2.30;1.60;;;21.70;53.90;;;;;;5015143;28;20029;-75
2023/06/29 02:26:26;;;;;;;3.60;1.58;;;21.70;53.80;;;;;;5015401;28;20038;-75
2023/06/29 02:28:52;;;;;;;1.98;1.40;;;21.70;53.80;;;;;;5015132;28;20026;-75
2023/06/29 02:31:17;;;;;;;1.83;1.48;;;21.80;54.40;;;;;;5014946;28;20100;-75
2023/06/29 02:33:44;;;;;;;1.77;1.55;;;21.80;53.70;;;;;;5015205;28;20114;-75
2023/06/29 02:36:10;;;;;;;2.22;1.52;;;21.80;53.70;;;;;;5014980;28;20353;-75
2023/06/29 02:38:36;;;;;;;1.65;1.50;;;21.80;53.60;;;;;;5015111;28;20109;-74
2023/06/29 02:41:02;;;;;;;3.03;1.58;;;21.90;53.60;;;;;;5014921;28;20028;-74
2023/06/29 02:43:27;;;;;;;1.73;1.40;;;21.90;53.50;;;;;;5014795;28;20080;-75
2023/06/29 02:45:53;;;;;;;1.85;1.20;;;22.00;53.60;;;;;;5015101;28;20379;-74
2023/06/29 02:48:18;;;;;;;1.80;1.23;;;22.00;53.50;;;;;;5014847;28;20030;-74
2023/06/29 02:50:44;;;;;;;2.30;1.50;;;22.00;53.50;;;;;;5014735;28;20038;-75
2023/06/29 02:53:16;;;;;;;1.70;1.60;;;22.00;53.40;;;;;;5014792;28;20026;-75
2023/06/29 02:55:41;;;;;;;1.42;1.33;;;22.10;53.30;;;;;;5014870;28;20456;-75
2023/06/29 02:58:07;;;;;;;1.98;1.60;;;22.10;53.40;;;;;;5014720;28;20105;-75
2023/06/29 03:00:33;;;;;;;1.60;1.50;;;22.00;53.30;;;;;;5014635;28;20163;-75
2023/06/29 03:02:58;;;;;;;1.98;1.60;;;22.10;53.50;;;;;;5013268;28;20030;-75
2023/06/29 03:05:24;;;;;;;2.08;1.30;;;22.10;53.40;;;;;;5014184;28;20029;-75
2023/06/29 03:07:50;;;;;;;3.55;1.50;;;22.10;53.30;;;;;;5014510;28;20026;-74
2023/06/29 03:10:16;;;;;;;2.17;1.63;;;22.00;53.30;;;;;;5013022;28;20081;-75
2023/06/29 03:12:41;;;;;;;1.63;1.52;;;22.00;53.30;;;;;;5014363;28;20030;-75
2023/06/29 03:15:08;;;;;;;1.80;1.35;;;22.00;53.40;;;;;;5014359;28;20376;-75
2023/06/29 03:17:34;;;;;;;2.05;1.35;;;22.00;53.50;;;;;;5014391;28;20026;-75
2023/06/29 03:19:59;;;;;;;1.63;1.38;;;22.00;53.50;;;;;;5014292;28;20384;-76
2023/06/29 03:22:26;;;;;;;1.40;1.30;;;22.00;53.60;;;;;;5014539;28;20456;-76
2023/06/29 03:24:52;;;;;;;1.55;1.45;;;22.10;53.60;;;;;;5013718;28;20373;-75
2023/06/29 03:27:18;;;;;;;1.70;1.60;;;22.10;53.50;;;;;;5014178;28;20060;-74
2023/06/29 03:29:47;;;;;;;1.77;1.67;;;22.10;53.50;;;;;;5014447;28;20026;-75
2023/06/29 03:32:13;;;;;;;1.65;1.45;;;22.20;53.50;;;;;;5012425;28;20034;-74
2023/06/29 03:34:38;;;;;;;1.77;1.40;;;22.20;53.50;;;;;;5012561;28;20092;-74
2023/06/29 03:37:04;;;;;;;1.73;1.40;;;22.20;53.40;;;;;;5012499;28;20113;-75
2023/06/29 03:39:30;;;;;;;3.10;1.60;;;22.20;53.50;;;;;;5013903;28;20032;-74
2023/06/29 03:41:55;;;;;;;1.88;1.60;;;22.20;53.50;;;;;;5013481;28;20422;-75
2023/06/29 03:44:21;;;;;;;1.95;1.50;;;22.20;53.50;;;;;;5012281;28;20053;-75
2023/06/29 03:46:47;;;;;;;1.92;1.25;;;22.20;53.60;;;;;;5012985;28;20032;-76
2023/06/29 03:49:13;;;;;;;1.70;1.50;;;22.20;53.70;;;;;;5013135;28;20488;-75
2023/06/29 03:51:38;;;;;;;1.90;1.27;;;22.20;53.70;;;;;;5013336;28;20033;-75
2023/06/29 03:54:04;;;;;;;2.28;1.67;;;22.30;53.70;;;;;;5013452;28;20444;-75
2023/06/29 03:56:31;;;;;;;1.73;1.60;;;22.30;53.60;;;;;;5009833;28;20052;-76
2023/06/29 03:58:57;;;;;;;2.08;1.75;;;22.30;53.70;;;;;;5012893;28;20080;-75
2023/06/29 04:01:23;;;;;;;4.40;1.58;;;22.30;53.60;;;;;;5013692;28;20472;-76
2023/06/29 04:03:49;;;;;;;2.90;1.42;;;22.40;53.70;;;;;;5013777;28;20032;-75
2023/06/29 04:06:15;;;;;;;3.33;1.77;;;22.40;53.80;;;;;;5012316;28;20380;-77
2023/06/29 04:08:40;;;;;;;1.92;1.58;;;22.40;53.80;;;;;;5013145;28;20030;-75
2023/06/29 04:11:06;;;;;;;3.20;1.60;;;22.30;53.80;;;;;;5012609;28;20025;-76
2023/06/29 04:13:32;;;;;;;2.65;1.75;;;22.30;53.90;;;;;;5012692;28;20448;-76
2023/06/29 04:15:57;;;;;;;3.33;1.60;;;22.30;54.20;;;;;;5013054;28;20423;-76
2023/06/29 04:18:23;;;;;;;2.03;1.58;;;22.30;53.90;;;;;;5012521;28;20046;-76
2023/06/29 04:20:49;;;;;;;1.50;1.40;;;22.30;53.90;;;;;;5012666;28;20029;-78
2023/06/29 04:23:15;;;;;;;2.00;1.42;;;22.20;54.00;;;;;;5012739;28;20026;-78
2023/06/29 04:25:44;;;;;;;1.55;1.45;;;22.10;54.00;;;;;;5011223;28;20029;-74
2023/06/29 04:28:12;;;;;;;2.17;1.45;;;22.00;54.10;;;;;;5012783;28;20029;-72
2023/06/29 04:30:41;;;;;;;2.28;1.50;;;21.80;54.20;;;;;;5012625;28;20100;-73
2023/06/29 04:33:10;;;;;;;2.58;1.60;;;21.70;54.70;;;;;;5012759;28;20026;-74
2023/06/29 04:35:45;;;;;;;1.92;1.30;;;21.50;54.80;;;;;;5011148;28;20022;-87
2023/06/29 04:38:12;;;;;;;1.45;1.35;;;21.40;55.20;;;;;;5015203;28;20180;-81
2023/06/29 04:40:38;;;;;;;1.50;1.35;;;21.30;55.10;;;;;;5016925;28;20472;-78
2023/06/29 04:43:04;;;;;;;1.85;1.25;;;21.30;55.30;;;;;;5016378;28;20030;-77
2023/06/29 04:45:31;;;;;;;1.58;1.30;;;21.20;55.50;;;;;;5016083;28;20483;-75
2023/06/29 04:47:58;;;;;;;1.55;1.30;;;21.10;55.80;;;;;;5016412;28;20091;-76
2023/06/29 04:50:31;;;;;;;2.05;1.48;;;21.00;56.20;;;;;;5015013;28;20500;-76
2023/06/29 04:52:58;;;;;;;1.98;1.50;;;20.90;56.40;;;;;;5014641;28;20030;-76
2023/06/29 04:55:25;;;;;;;2.33;1.63;;;20.90;56.90;;;;;;5015676;28;20030;-75
2023/06/29 04:57:51;;;;;;;2.72;1.52;;;20.70;56.90;;;;;;5014456;28;20493;-75
2023/06/29 05:00:18;;;;;;;1.88;1.58;;;20.70;57.30;;;;;;5014502;28;20037;-75
2023/06/29 05:02:43;;;;;;;2.97;1.83;;;20.80;57.30;;;;;;5016121;28;20029;-76
2023/06/29 05:05:09;;;;;;;1.67;1.40;;;20.80;57.60;;;;;;5015719;28;20479;-74
2023/06/29 05:07:37;;;;;;;3.88;1.63;;;20.80;57.70;;;;;;5014928;28;20026;-74
2023/06/29 05:10:03;;;;;;;2.10;1.40;;;20.80;57.80;;;;;;5015663;28;20026;-75
2023/06/29 05:12:29;;;;;;;1.55;1.45;;;20.90;57.80;;;;;;5030572;28;20460;-75
2023/06/29 05:14:54;;;;;;;2.05;1.42;;;20.90;57.80;;;;;;5015602;28;20065;-75
2023/06/29 05:17:20;;;;;;;2.25;1.40;;;21.00;57.60;;;;;;5015280;28;20080;-73
2023/06/29 05:19:46;;;;;;;1.50;1.40;;;21.20;57.50;;;;;;5014080;28;20029;-74
2023/06/29 05:22:12;;;;;;;1.63;1.45;;;21.30;57.30;;;;;;5015550;28;20088;-73
2023/06/29 05:24:37;;;;;;;4.28;1.25;;;21.30;57.80;;;;;;5014394;28;20384;-71
2023/06/29 05:27:04;;;;;;;1.20;1.10;;;21.30;57.20;;;;;;5015573;28;20077;-71
2023/06/29 05:29:29;;;;;;;1.75;1.15;;;21.50;57.40;;;;;;5015398;28;20431;-72
2023/06/29 05:31:55;;;;;;;1.02;1.02;;;21.70;57.20;;;;;;5016040;28;20037;-70
2023/06/29 05:34:21;;;;;;;1.38;1.27;;;21.90;56.90;;;;;;5014921;28;20026;-70
2023/06/29 05:36:47;;;;;;;1.30;1.20;;;22.10;56.70;;;;;;5013488;28;20036;-73
2023/06/29 05:39:13;;;;;;;1.10;1.10;;;22.20;56.50;;;;;;5013195;28;20115;-71
2023/06/29 05:41:39;;;;;;;2.15;1.30;;;22.30;56.30;;;;;;5013403;28;20508;-72
2023/06/29 05:44:06;;;;;;;2.28;1.20;;;22.40;56.20;;;;;;5015899;28;20048;-71
2023/06/29 05:46:33;;;;;;;1.42;1.25;;;22.50;56.10;;;;;;5016305;28;20038;-73
2023/06/29 05:48:59;;;;;;;2.55;1.20;;;22.50;56.00;;;;;;5014168;28;20037;-73
2023/06/29 05:51:25;;;;;;;1.17;1.08;;;22.60;56.00;;;;;;5015673;28;20030;-72
2023/06/29 05:53:51;;;;;;;1.90;1.20;;;22.50;55.90;;;;;;5015656;28;20026;-72
2023/06/29 05:56:16;;;;;;;1.20;1.00;;;22.60;56.00;;;;;;5015445;28;20026;-71
2023/06/29 05:58:42;;;;;;;1.83;1.20;;;22.60;55.90;;;;;;5015793;28;20527;-72
2023/06/29 06:01:07;;;;;;;3.10;1.10;;;22.60;55.80;;;;;;5015603;28;20026;-72
2023/06/29 06:03:33;;;;;;;1.55;1.30;;;22.70;55.90;;;;;;5015588;28;20026;-72
2023/06/29 06:05:59;;;;;;;1.15;1.05;;;22.70;55.80;;;;;;5015138;28;20034;-72
2023/06/29 06:08:24;;;;;;;1.75;1.13;;;22.80;55.80;;;;;;5015509;28;20059;-72
2023/06/29 06:10:50;;;;;;;1.05;0.95;;;22.80;55.70;;;;;;5015526;28;20113;-72
2023/06/29 06:13:16;;;;;;;1.27;1.17;;;22.80;55.70;;;;;;5015301;28;20125;-72
2023/06/29 06:15:42;;;;;;;1.15;1.05;;;22.80;55.70;;;;;;5015273;28;20030;-72
2023/06/29 06:18:07;;;;;;;0.95;0.95;;;22.80;55.70;;;;;;5015331;28;20025;-72
2023/06/29 06:20:33;;;;;;;1.13;1.10;;;22.80;55.60;;;;;;5015607;28;20075;-72
2023/06/29 06:22:59;;;;;;;0.93;0.93;;;22.70;55.60;;;;;;5015230;28;20104;-72
2023/06/29 06:25:24;;;;;;;1.00;1.00;;;22.70;55.70;;;;;;5015189;28;20029;-72
2023/06/29 06:27:50;;;;;;;1.20;1.08;;;22.70;55.80;;;;;;5014983;28;20021;-73
2023/06/29 06:30:16;;;;;;;1.10;1.00;;;22.70;55.90;;;;;;5014933;28;20057;-72
2023/06/29 06:32:42;;;;;;;1.13;0.70;;;22.70;55.90;;;;;;5015359;28;20396;-72
2023/06/29 06:35:08;;;;;;;0.77;0.77;;;22.80;55.90;;;;;;5015090;28;20022;-73
2023/06/29 06:37:38;;;;;;;1.17;0.90;;;22.80;55.80;;;;;;5014801;28;20069;-72
2023/06/29 06:40:07;;;;;;;0.80;0.80;;;22.90;55.80;;;;;;5013322;28;20034;-72
2023/06/29 06:42:36;;;;;;;0.85;0.80;;;22.90;55.80;;;;;;5014719;28;20065;-72
2023/06/29 06:45:05;;;;;;;0.93;0.93;;;22.90;55.70;;;;;;5014902;28;20496;-71
2023/06/29 06:47:32;;;;;;;3.92;0.98;;;22.90;55.80;;;;;;5014984;28;20058;-71
2023/06/29 06:49:58;;;;;;;0.80;0.80;;;22.90;55.80;;;;;;5013368;28;20065;-72
2023/06/29 06:52:24;;;;;;;0.80;0.80;;;22.90;55.80;;;;;;5014707;28;20411;-72
2023/06/29 06:54:50;;;;;;;0.75;0.75;;;22.90;56.40;;;;;;5014889;28;20052;-71
2023/06/29 06:57:16;;;;;;;1.55;0.90;;;22.90;55.80;;;;;;5014624;28;20449;-71
2023/06/29 06:59:42;;;;;;;0.80;0.80;;;22.90;55.80;;;;;;5013941;28;20030;-71
2023/06/29 07:02:08;;;;;;;1.83;1.02;;;22.90;55.90;;;;;;5014538;28;20452;-72
2023/06/29 07:04:33;;;;;;;0.80;0.80;;;22.90;55.90;;;;;;5013011;28;20479;-72
2023/06/29 07:06:59;;;;;;;0.82;0.80;;;22.90;55.90;;;;;;5013531;28;20022;-72
2023/06/29 07:09:25;;;;;;;1.33;1.08;;;22.90;55.90;;;;;;5014445;28;20041;-72
2023/06/29 07:11:50;;;;;;;1.00;1.00;;;22.90;55.90;;;;;;5014438;28;20056;-71
2023/06/29 07:14:16;;;;;;;0.90;0.90;;;22.90;55.90;;;;;;5014379;28;20079;-72
2023/06/29 07:16:42;;;;;;;1.38;1.05;;;22.90;55.90;;;;;;5014510;28;20018;-72
2023/06/29 07:19:12;;;;;;;1.00;0.90;;;22.90;55.90;;;;;;5013068;28;20365;-71
2023/06/29 07:21:38;;;;;;;1.33;1.05;;;22.90;55.90;;;;;;5014297;28;20113;-72
2023/06/29 07:24:04;;;;;;;1.17;1.10;;;22.90;55.90;;;;;;5014307;28;20106;-72
2023/06/29 07:26:30;;;;;;;1.27;1.17;;;22.90;55.90;;;;;;5012557;28;20084;-71
2023/06/29 07:28:55;;;;;;;1.17;1.08;;;23.00;56.00;;;;;;5013858;28;20431;-72
2023/06/29 07:31:26;;;;;;;1.15;1.08;;;23.00;56.00;;;;;;5012982;28;20435;-71
2023/06/29 07:33:55;;;;;;;1.20;1.10;;;23.00;56.00;;;;;;5012657;28;20030;-72
2023/06/29 07:36:22;;;;;;;1.20;1.10;;;23.00;56.00;;;;;;5012839;28;20026;-72
2023/06/29 07:38:48;;;;;;;1.00;0.90;;;23.10;56.00;;;;;;5014070;28;20073;-71
2023/06/29 07:41:16;;;;;;;0.95;0.95;;;23.10;55.90;;;;;;5012866;28;20109;-72
2023/06/29 07:43:46;;;;;;;1.30;1.20;;;23.10;55.90;;;;;;5014042;28;20057;-72
2023/06/29 07:46:11;;;;;;;1.73;1.35;;;23.10;56.00;;;;;;5014008;28;20461;-71
2023/06/29 07:48:37;;;;;;;1.40;1.30;;;23.00;56.00;;;;;;5013629;28;20041;-71
2023/06/29 07:51:06;;;;;;;1.45;1.30;;;23.10;56.10;;;;;;5013874;28;20464;-71
2023/06/29 07:53:32;;;;;;;1.45;1.35;;;23.10;56.10;;;;;;5013772;28;20026;-71
2023/06/29 07:55:59;;;;;;;1.30;1.20;;;23.10;56.10;;;;;;5014105;28;20052;-71
2023/06/29 07:58:26;;;;;;;1.50;1.40;;;23.10;56.10;;;;;;5013918;28;20025;-72
2023/06/29 08:00:51;;;;;;;1.55;1.30;;;23.20;56.10;;;;;;5012647;28;20380;-72
2023/06/29 08:03:17;;;;;;;2.78;1.40;;;23.20;56.00;;;;;;5013378;28;20022;-73
2023/06/29 08:05:43;;;;;;;1.60;1.40;;;23.30;55.90;;;;;;5013834;28;20395;-71
2023/06/29 08:08:09;;;;;;;1.38;1.27;;;23.40;55.80;;;;;;5013638;28;20025;-71
2023/06/29 08:10:34;;;;;;;1.40;1.30;;;23.60;55.60;;;;;;5013907;28;20038;-71
2023/06/29 08:13:01;;;;;;;1.15;1.13;;;23.70;55.40;;;;;;5016199;28;20416;-71
2023/06/29 08:15:26;;;;;;;1.70;1.50;;;23.80;55.30;;;;;;5017471;28;20033;-71
2023/06/29 08:17:52;;;;;;;1.40;1.30;;;23.90;55.20;;;;;;5017375;28;20030;-72
2023/06/29 08:20:17;;;;;;;1.52;1.42;;;23.90;55.10;;;;;;5017817;28;20033;-71
2023/06/29 08:22:43;;;;;;;1.20;1.10;;;23.90;55.10;;;;;;5016390;28;20037;-71
2023/06/29 08:25:09;;;;;;;1.58;1.23;;;23.90;55.10;;;;;;5017390;28;20022;-71
2023/06/29 08:27:39;;;;;;;1.60;1.42;;;23.90;55.20;;;;;;5017318;28;20037;-71
2023/06/29 08:30:05;;;;;;;1.38;1.27;;;23.90;55.20;;;;;;5015959;28;20092;-72
2023/06/29 08:32:31;;;;;;;2.35;1.30;;;23.90;55.20;;;;;;5016966;28;20034;-72
2023/06/29 08:34:56;;;;;;;1.60;1.50;;;23.80;55.20;;;;;;5017308;28;20033;-71
2023/06/29 08:37:22;;;;;;;1.13;1.13;;;23.80;55.30;;;;;;5017060;28;20026;-71
2023/06/29 08:39:48;;;;;;;1.50;1.40;;;23.80;55.30;;;;;;5017666;28;20026;-71
2023/06/29 08:42:13;;;;;;;1.20;1.20;;;23.80;55.30;;;;;;5017197;28;20360;-71
2023/06/29 08:44:40;;;;;;;1.58;1.40;;;23.80;55.30;;;;;;5017192;28;20050;-71
2023/06/29 08:47:06;;;;;;;2.42;1.30;;;23.70;55.40;;;;;;5015730;28;20030;-72
2023/06/29 08:49:35;;;;;;;1.40;1.30;;;23.70;55.50;;;;;;5017014;28;20057;-71
2023/06/29 08:52:03;;;;;;;1.50;1.40;;;23.60;55.60;;;;;;5017285;28;20105;-71
2023/06/29 08:54:32;;;;;;;1.50;1.20;;;23.60;55.60;;;;;;5017002;28;20037;-71
2023/06/29 08:57:02;;;;;;;1.48;1.38;;;23.60;55.70;;;;;;5015716;28;20034;-72
2023/06/29 08:59:28;;;;;;;1.35;1.25;;;23.50;55.70;;;;;;5015523;28;20030;-72
2023/06/29 09:01:58;;;;;;;1.58;1.40;;;23.50;55.70;;;;;;5017083;28;20034;-71
2023/06/29 09:04:24;;;;;;;1.42;1.33;;;23.50;55.80;;;;;;5016982;28;20456;-72
2023/06/29 09:06:56;;;;;;;1.48;1.38;;;23.50;55.90;;;;;;5017105;28;20069;-72
2023/06/29 09:09:22;;;;;;;1.70;1.60;;;23.40;55.90;;;;;;5015340;28;20037;-72
2023/06/29 09:11:49;;;;;;;1.67;1.58;;;23.40;56.10;;;;;;5015135;28;20095;-72
2023/06/29 09:14:15;;;;;;;1.80;1.70;;;23.30;56.10;;;;;;5016817;28;20022;-72
2023/06/29 09:16:58;;;;;;;2.65;1.70;;;23.30;56.20;;;;;;5016214;28;20476;-72
2023/06/29 09:19:25;;;;;;;2.13;1.65;;;23.30;56.30;;;;;;5015110;28;20479;-72
2023/06/29 09:21:51;;;;;;;1.65;1.55;;;23.40;56.30;;;;;;5016441;28;20026;-72
2023/06/29 09:24:18;;;;;;;1.25;1.20;;;23.40;56.30;;;;;;5015730;28;20484;-72
2023/06/29 09:26:49;;;;;;;1.60;1.50;;;23.50;56.30;;;;;;5016611;28;20473;-73
2023/06/29 09:29:16;;;;;;;1.50;1.40;;;23.60;56.20;;;;;;5014949;28;20030;-72
2023/06/29 09:31:56;;;;;;;1.58;1.48;;;23.60;56.10;;;;;;5015040;28;20030;-72
2023/06/29 09:34:27;;;;;;;1.83;1.73;;;23.70;56.10;;;;;;5016473;28;20048;-72
2023/06/29 09:36:54;;;;;;;1.48;1.38;;;23.70;56.00;;;;;;5016261;28;20361;-72
2023/06/29 09:39:21;;;;;;;1.60;1.50;;;23.70;56.00;;;;;;5015956;28;20030;-73
2023/06/29 09:41:48;;;;;;;1.55;1.45;;;23.70;56.10;;;;;;5016310;28;20030;-72
2023/06/29 09:44:22;;;;;;;1.63;1.52;;;23.70;56.10;;;;;;5014515;28;20061;-72
2023/06/29 09:46:48;;;;;;;2.50;1.50;;;23.80;56.10;;;;;;5015978;28;20421;-72
2023/06/29 09:49:14;;;;;;;2.15;1.73;;;23.90;56.00;;;;;;5015616;28;20056;-72
2023/06/29 09:51:41;;;;;;;2.05;1.67;;;24.10;56.00;;;;;;5015464;28;20061;-72
2023/06/29 09:54:14;;;;;;;2.75;1.90;;;24.20;55.80;;;;;;5014887;28;20026;-72
2023/06/29 09:56:44;;;;;;;1.83;1.70;;;24.20;55.60;;;;;;5015790;28;20022;-72
2023/06/29 09:59:10;;;;;;;2.03;1.50;;;24.30;55.50;;;;;;5015783;28;20071;-72
2023/06/29 10:01:43;;;;;;;1.85;1.63;;;24.40;55.50;;;;;;5014251;28;20034;-72
2023/06/29 10:04:09;;;;;;;1.70;1.60;;;24.40;55.30;;;;;;5015394;28;20026;-72
2023/06/29 10:06:37;;;;;;;1.80;1.70;;;24.50;55.30;;;;;;5015857;28;20148;-72
2023/06/29 10:09:04;;;;;;;2.00;1.80;;;24.50;55.30;;;;;;5015363;28;20026;-72
2023/06/29 10:11:34;;;;;;;1.65;1.55;;;24.50;55.20;;;;;;5015353;28;20033;-72
2023/06/29 10:14:02;;;;;;;1.60;1.50;;;24.50;55.40;;;;;;5015587;28;20022;-72
2023/06/29 10:16:33;;;;;;;2.75;1.70;;;24.40;55.50;;;;;;5015183;28;20467;-72
2023/06/29 10:19:09;;;;;;;1.90;1.80;;;24.50;55.60;;;;;;5014614;28;20033;-73
2023/06/29 10:21:35;;;;;;;2.10;1.88;;;24.50;55.50;;;;;;5014273;28;20037;-72
2023/06/29 10:24:02;;;;;;;2.67;1.80;;;24.70;55.60;;;;;;5013956;28;20060;-73
2023/06/29 10:26:28;;;;;;;1.70;1.60;;;24.80;55.50;;;;;;5013801;28;20026;-71
2023/06/29 10:28:54;;;;;;;1.50;1.40;;;24.90;55.30;;;;;;5014888;28;20033;-71
2023/06/29 10:31:32;;;;;;;2.30;1.80;;;25.00;55.10;;;;;;5013667;28;20432;-71
2023/06/29 10:33:58;;;;;;;2.22;1.70;;;25.00;55.10;;;;;;5014364;28;20117;-72
2023/06/29 10:36:25;;;;;;;1.55;1.45;;;24.90;55.10;;;;;;5012943;28;20026;-72
2023/06/29 10:38:51;;;;;;;1.63;1.52;;;24.90;55.20;;;;;;5014833;28;20040;-72
2023/06/29 10:41:27;;;;;;;1.95;1.65;;;24.90;55.20;;;;;;5013623;28;20070;-72
2023/06/29 10:43:58;;;;;;;1.80;1.70;;;24.90;55.10;;;;;;5013688;28;20064;-72
2023/06/29 10:46:49;;;;;;;1.50;1.40;;;25.00;55.00;;;;;;5015083;28;20431;-71
2023/06/29 10:49:25;;;;;;;1.95;1.40;;;25.10;55.00;;;;;;5014789;28;20038;-71
2023/06/29 10:51:53;;;;;;;1.77;1.58;;;25.20;54.90;;;;;;5013208;28;20064;-71
2023/06/29 10:54:25;;;;;;;1.40;1.30;;;25.30;54.80;;;;;;5013713;28;20487;-72
2023/06/29 10:57:07;;;;;;;3.30;1.73;;;25.40;54.70;;;;;;5014797;28;20026;-72
2023/06/29 10:59:34;;;;;;;1.52;1.42;;;25.40;54.50;;;;;;4997102;28;20033;-74
2023/06/29 11:02:00;;;;;;;2.53;1.83;;;25.40;54.40;;;;;;5013336;28;20030;-74
2023/06/29 11:04:27;;;;;;;1.65;1.42;;;25.40;54.40;;;;;;5014534;28;20022;-75
2023/06/29 11:06:53;;;;;;;1.58;1.48;;;25.40;54.50;;;;;;5013187;28;20033;-75
2023/06/29 11:09:21;;;;;;;1.73;1.50;;;25.40;54.50;;;;;;5013012;28;20037;-74
2023/06/29 11:11:48;;;;;;;2.20;2.00;;;25.30;54.50;;;;;;5012871;28;20038;-75
2023/06/29 11:14:14;;;;;;;1.75;1.60;;;25.30;54.50;;;;;;5013076;28;20053;-75
2023/06/29 11:16:40;;;;;;;2.35;1.80;;;25.30;54.60;;;;;;5014232;28;20057;-75
2023/06/29 11:19:06;;;;;;;2.00;1.80;;;25.30;54.60;;;;;;5013041;28;20029;-75
2023/06/29 11:21:32;;;;;;;1.92;1.60;;;25.30;54.60;;;;;;5014305;28;20105;-75
2023/06/29 11:23:58;;;;;;;1.50;1.40;;;25.30;54.60;;;;;;5013003;28;20057;-75
2023/06/29 11:26:26;;;;;;;1.70;1.60;;;25.30;54.70;;;;;;5012960;28;20473;-74
2023/06/29 11:28:53;;;;;;;3.50;1.80;;;25.20;54.90;;;;;;5014615;28;20117;-74
2023/06/29 11:31:22;;;;;;;1.60;1.50;;;25.10;55.10;;;;;;5012676;28;20034;-75
2023/06/29 11:33:48;;;;;;;2.17;1.98;;;25.20;55.40;;;;;;5014387;28;20041;-74
2023/06/29 11:36:14;;;;;;;1.80;1.70;;;25.20;55.40;;;;;;5013939;28;20028;-74
2023/06/29 11:38:40;;;;;;;2.95;1.80;;;25.30;55.40;;;;;;5014001;28;20477;-74
2023/06/29 11:41:06;;;;;;;1.90;1.70;;;25.30;55.40;;;;;;5014041;28;20030;-74
2023/06/29 11:43:32;;;;;;;1.75;1.65;;;25.40;55.40;;;;;;5012205;28;20125;-74
2023/06/29 11:45:58;;;;;;;3.15;1.58;;;25.40;55.40;;;;;;5013566;28;20036;-74
2023/06/29 11:48:24;;;;;;;1.67;1.58;;;25.40;55.40;;;;;;5013559;28;20033;-75
2023/06/29 11:50:49;;;;;;;2.42;1.60;;;25.50;55.50;;;;;;5013887;28;20030;-74
2023/06/29 11:53:16;;;;;;;1.95;1.70;;;25.50;55.50;;;;;;5014075;28;20060;-75
2023/06/29 11:55:53;;;;;;;1.75;1.65;;;25.60;55.40;;;;;;5012441;28;20033;-74
2023/06/29 11:58:18;;;;;;;3.42;1.90;;;25.70;55.40;;;;;;5013949;28;20088;-74
2023/06/29 12:00:44;;;;;;;1.60;1.50;;;25.80;55.30;;;;;;5013697;28;20021;-74
2023/06/29 12:03:10;;;;;;;2.53;1.90;;;25.90;55.20;;;;;;5013564;28;20030;-74
2023/06/29 12:05:41;;;;;;;1.98;1.75;;;26.00;55.10;;;;;;5012259;28;20034;-75
2023/06/29 12:08:08;;;;;;;1.88;1.73;;;26.00;55.10;;;;;;5013814;28;20026;-74
2023/06/29 12:10:36;;;;;;;2.47;1.80;;;26.10;55.10;;;;;;5013561;28;20022;-74
2023/06/29 12:13:03;;;;;;;1.88;1.77;;;26.20;55.00;;;;;;5013484;28;20049;-74
2023/06/29 12:15:34;;;;;;;2.20;2.00;;;26.20;54.90;;;;;;5012270;28;20026;-74
2023/06/29 12:18:07;;;;;;;1.90;1.70;;;26.20;54.80;;;;;;5014221;28;20499;-74
2023/06/29 12:20:39;;;;;;;2.03;1.80;;;26.20;54.90;;;;;;5012181;28;20053;-74
2023/06/29 12:23:04;;;;;;;2.03;1.90;;;26.00;55.00;;;;;;5012290;28;20486;-74
2023/06/29 12:25:31;;;;;;;2.38;1.95;;;25.90;55.10;;;;;;5013790;28;20034;-74
2023/06/29 12:27:57;;;;;;;2.67;2.05;;;25.80;55.30;;;;;;5013558;28;20112;-74
2023/06/29 12:30:22;;;;;;;2.20;1.80;;;25.70;55.60;;;;;;5013668;28;20112;-74
2023/06/29 12:32:49;;;;;;;1.80;1.70;;;25.60;55.70;;;;;;5013649;28;20080;-74
2023/06/29 12:35:16;;;;;;;1.88;1.77;;;25.60;55.80;;;;;;5012219;28;20030;-74
2023/06/29 12:37:42;;;;;;;1.50;1.40;;;25.60;55.90;;;;;;5013574;28;20027;-74
2023/06/29 12:40:08;;;;;;;2.03;1.90;;;25.60;55.90;;;;;;5012892;28;20041;-72
2023/06/29 12:42:34;;;;;;;1.73;1.60;;;25.60;55.90;;;;;;5013256;28;20092;-73
2023/06/29 12:45:01;;;;;;;1.80;1.70;;;25.70;56.00;;;;;;5012157;28;20488;-73
2023/06/29 12:47:29;;;;;;;1.95;1.75;;;25.90;55.90;;;;;;5013325;28;20026;-73